EST,Max TemperatureF,Mean TemperatureF,Min TemperatureF,Max Dew PointF,MeanDew PointF,Min DewpointF,Max Humidity, Mean Humidity, Min Humidity, Max Sea Level PressureIn, Mean Sea Level PressureIn, Min Sea Level PressureIn, Max VisibilityMiles, Mean VisibilityMiles, Min VisibilityMiles, Max Wind SpeedMPH, Mean Wind SpeedMPH, Max Gust SpeedMPH,PrecipitationIn, CloudCover, Events, WindDirDegrees
2013-1-1,40,34,28,27,21,10,64,54,43,29.97,29.88,29.83,10,10,10,21,13,28,0.00,7,,289
2013-1-2,32,28,23,16,12,8,59,51,43,30.14,30.04,29.96,10,10,10,21,9,26,0.00,6,,303
2013-1-3,32,28,23,17,14,11,68,56,43,30.18,30.11,30.05,10,10,10,15,7,21,0.00,5,,289
2013-1-4,39,31,23,22,19,15,74,59,44,30.06,29.99,29.92,10,10,10,22,10,26,0.00,2,,253
2013-1-5,44,35,25,22,19,17,75,57,39,30.25,30.16,29.98,10,10,9,21,7,29,0.00,3,,284
2013-1-6,45,37,29,34,29,23,89,74,58,30.22,30.07,29.96,10,7,1,14,5,16,T,6,Snow,236
2013-1-7,45,35,25,29,23,17,78,59,39,30.39,30.25,30.04,10,10,10,18,6,22,0.00,0,,318
2013-1-8,49,36,23,35,29,21,92,69,46,30.42,30.37,30.33,10,10,7,23,6,30,0.00,3,,230
2013-1-9,49,38,26,40,32,24,92,76,60,30.37,30.26,30.12,10,9,6,17,7,22,T,5,,227
2013-1-10,48,39,30,31,23,20,64,48,31,30.53,30.42,30.21,10,10,10,20,10,25,0.00,2,,316
2013-1-11,48,39,30,46,34,23,93,77,60,30.50,30.33,30.10,10,8,2,16,6,21,0.40,8,Rain,96
2013-1-12,49,46,42,47,43,41,100,95,89,30.16,30.11,30.04,3,1,0,17,7,22,0.10,8,Fog-Rain,24
2013-1-13,48,44,40,47,42,39,100,93,86,30.16,30.09,30.01,10,2,0,9,4,13,0.02,8,Fog,188
2013-1-14,60,49,37,54,45,30,100,79,58,30.26,30.08,29.99,10,4,0,20,9,24,0.03,7,Fog-Rain,273
2013-1-15,39,37,35,32,28,25,89,74,59,30.31,30.25,30.18,10,10,8,13,7,16,0.14,8,Rain,8
2013-1-16,38,36,33,35,33,30,96,86,75,30.19,29.97,29.76,9,4,2,20,8,25,0.81,8,Rain,1
2013-1-17,44,39,34,34,27,21,92,69,45,30.06,30.00,29.91,10,10,8,20,9,24,0.00,8,,308
2013-1-18,34,27,20,20,9,4,62,48,34,30.49,30.33,30.01,10,10,10,22,10,28,T,3,Snow,334
2013-1-19,48,36,24,35,28,16,70,58,45,30.39,30.17,29.94,10,10,10,29,16,38,0.00,3,,219
2013-1-20,56,44,31,33,23,9,70,44,17,30.01,29.82,29.67,10,10,10,30,15,40,0.00,3,,254
2013-1-21,33,28,22,25,17,8,92,66,39,30.10,29.94,29.81,10,6,0,15,6,18,0.13,7,Fog-Snow,287
2013-1-22,27,20,13,16,2,-8,68,51,33,30.15,29.98,29.79,10,10,9,24,15,36,0.00,3,,298
2013-1-23,19,15,10,-2,-4,-7,58,48,37,30.22,30.18,30.14,10,10,10,22,11,30,0.00,3,,286
2013-1-24,23,14,5,4,-1,-4,69,53,36,30.35,30.21,30.12,10,10,10,28,12,37,0.00,2,,319
2013-1-25,24,17,10,16,9,0,84,60,36,30.38,30.20,30.05,10,6,1,17,6,22,0.04,7,Snow,295
2013-1-26,26,21,15,14,8,2,80,61,41,30.34,30.13,30.02,10,10,10,23,11,31,0.00,3,,319
2013-1-27,32,21,10,13,7,3,76,55,33,30.49,30.44,30.35,10,10,10,21,6,25,0.00,2,,290
2013-1-28,36,26,16,34,25,7,92,77,61,30.47,30.21,29.99,10,5,2,14,5,20,0.18,8,Rain-Snow,230
2013-1-29,45,39,33,39,35,30,100,88,76,30.16,30.09,29.99,7,4,2,14,4,16,0.02,8,Rain,84
2013-1-30,55,48,41,52,48,39,100,95,89,30.07,29.82,29.44,7,1,0,25,13,38,T,8,Fog-Rain,180
2013-1-31,57,44,30,54,36,8,93,62,31,29.75,29.33,29.09,10,8,2,44,24,59,0.38,5,Rain,235